sensor_id;sensor_type;location;lat;lon;timestamp;temperature;humidity
1570;DHT22;778;50.120;8.698;2023-05-14T00:01:54;14.30;99.90
1570;DHT22;778;50.120;8.698;2023-05-14T00:04:24;14.30;99.90
1570;DHT22;778;50.120;8.698;2023-05-14T00:06:52;14.30;99.90
1570;DHT22;778;50.120;8.698;2023-05-14T00:09:21;14.30;99.90
1570;DHT22;778;50.120;8.698;2023-05-14T00:11:49;14.20;99.90
1570;DHT22;778;50.120;8.698;2023-05-14T00:14:17;14.20;99.90
1570;DHT22;778;50.120;8.698;2023-05-14T00:16:46;14.20;99.90
1570;DHT22;778;50.120;8.698;2023-05-14T00:19:14;14.20;99.90
1570;DHT22;778;50.120;8.698;2023-05-14T00:21:45;14.30;99.90
1570;DHT22;778;50.120;8.698;2023-05-14T00:24:14;14.30;99.90
1570;DHT22;778;50.120;8.698;2023-05-14T00:27:04;14.20;99.90
1570;DHT22;778;50.120;8.698;2023-05-14T00:29:33;14.20;99.90
1570;DHT22;778;50.120;8.698;2023-05-14T00:32:02;14.20;99.90
1570;DHT22;778;50.120;8.698;2023-05-14T00:34:30;14.10;99.90
1570;DHT22;778;50.120;8.698;2023-05-14T00:37:00;14.10;99.90
1570;DHT22;778;50.120;8.698;2023-05-14T00:39:28;14.00;99.90
1570;DHT22;778;50.120;8.698;2023-05-14T00:41:57;14.00;99.90
1570;DHT22;778;50.120;8.698;2023-05-14T00:44:26;13.90;99.90
1570;DHT22;778;50.120;8.698;2023-05-14T00:46:54;13.90;99.90
1570;DHT22;778;50.120;8.698;2023-05-14T00:49:24;13.90;99.90
1570;DHT22;778;50.120;8.698;2023-05-14T00:51:52;13.90;99.90
1570;DHT22;778;50.120;8.698;2023-05-14T00:54:23;13.90;99.90
1570;DHT22;778;50.120;8.698;2023-05-14T00:56:51;13.90;99.90
1570;DHT22;778;50.120;8.698;2023-05-14T00:59:21;13.90;99.90
1570;DHT22;778;50.120;8.698;2023-05-14T01:01:49;13.90;99.90
1570;DHT22;778;50.120;8.698;2023-05-14T01:04:18;13.80;99.90
1570;DHT22;778;50.120;8.698;2023-05-14T01:06:52;13.80;99.90
1570;DHT22;778;50.120;8.698;2023-05-14T01:09:34;13.70;99.90
1570;DHT22;778;50.120;8.698;2023-05-14T01:12:08;13.70;99.90
1570;DHT22;778;50.120;8.698;2023-05-14T01:14:46;13.60;99.90
1570;DHT22;778;50.120;8.698;2023-05-14T01:17:21;13.60;99.90
1570;DHT22;778;50.120;8.698;2023-05-14T01:19:54;13.50;99.90
1570;DHT22;778;50.120;8.698;2023-05-14T01:22:25;13.50;99.90
1570;DHT22;778;50.120;8.698;2023-05-14T01:24:53;13.50;99.90
1570;DHT22;778;50.120;8.698;2023-05-14T01:27:33;13.40;99.90
1570;DHT22;778;50.120;8.698;2023-05-14T01:30:15;13.30;99.90
1570;DHT22;778;50.120;8.698;2023-05-14T01:32:50;13.30;99.90
1570;DHT22;778;50.120;8.698;2023-05-14T01:35:22;13.30;99.90
1570;DHT22;778;50.120;8.698;2023-05-14T01:37:56;13.20;99.90
1570;DHT22;778;50.120;8.698;2023-05-14T01:40:27;13.20;99.90
1570;DHT22;778;50.120;8.698;2023-05-14T01:42:56;13.30;99.90
1570;DHT22;778;50.120;8.698;2023-05-14T01:45:25;13.30;99.90
1570;DHT22;778;50.120;8.698;2023-05-14T01:47:53;13.30;99.90
1570;DHT22;778;50.120;8.698;2023-05-14T01:50:22;13.20;99.90
1570;DHT22;778;50.120;8.698;2023-05-14T01:52:51;13.20;99.90
1570;DHT22;778;50.120;8.698;2023-05-14T01:55:24;13.20;99.90
1570;DHT22;778;50.120;8.698;2023-05-14T01:57:53;13.20;99.90
1570;DHT22;778;50.120;8.698;2023-05-14T02:00:23;13.20;99.90
1570;DHT22;778;50.120;8.698;2023-05-14T02:02:52;13.20;99.90
1570;DHT22;778;50.120;8.698;2023-05-14T02:05:22;13.10;99.90
1570;DHT22;778;50.120;8.698;2023-05-14T02:07:53;13.10;99.90
1570;DHT22;778;50.120;8.698;2023-05-14T02:10:21;13.10;99.90
1570;DHT22;778;50.120;8.698;2023-05-14T02:12:51;13.00;99.90
1570;DHT22;778;50.120;8.698;2023-05-14T02:15:20;12.90;99.90
1570;DHT22;778;50.120;8.698;2023-05-14T02:17:48;12.90;99.90
1570;DHT22;778;50.120;8.698;2023-05-14T02:20:17;12.90;99.90
1570;DHT22;778;50.120;8.698;2023-05-14T02:22:46;12.90;99.90
1570;DHT22;778;50.120;8.698;2023-05-14T02:25:14;12.90;99.90
1570;DHT22;778;50.120;8.698;2023-05-14T02:27:44;12.80;99.90
1570;DHT22;778;50.120;8.698;2023-05-14T02:30:15;12.90;99.90
1570;DHT22;778;50.120;8.698;2023-05-14T02:32:44;12.80;99.90
1570;DHT22;778;50.120;8.698;2023-05-14T02:35:13;12.80;99.90
1570;DHT22;778;50.120;8.698;2023-05-14T02:37:42;12.80;99.90
1570;DHT22;778;50.120;8.698;2023-05-14T02:40:10;12.80;99.90
1570;DHT22;778;50.120;8.698;2023-05-14T02:42:39;12.80;99.90
1570;DHT22;778;50.120;8.698;2023-05-14T02:45:09;12.60;99.90
1570;DHT22;778;50.120;8.698;2023-05-14T02:47:39;12.60;99.90
1570;DHT22;778;50.120;8.698;2023-05-14T02:50:09;12.50;99.90
1570;DHT22;778;50.120;8.698;2023-05-14T02:52:37;12.60;99.90
1570;DHT22;778;50.120;8.698;2023-05-14T02:55:06;12.60;99.90
1570;DHT22;778;50.120;8.698;2023-05-14T02:57:35;12.60;99.90
1570;DHT22;778;50.120;8.698;2023-05-14T03:00:05;12.60;99.90
1570;DHT22;778;50.120;8.698;2023-05-14T03:02:37;12.50;99.90
1570;DHT22;778;50.120;8.698;2023-05-14T03:05:06;12.40;99.90
1570;DHT22;778;50.120;8.698;2023-05-14T03:07:35;12.40;99.90
1570;DHT22;778;50.120;8.698;2023-05-14T03:10:04;12.40;99.90
1570;DHT22;778;50.120;8.698;2023-05-14T03:12:33;12.30;99.90
1570;DHT22;778;50.120;8.698;2023-05-14T03:15:02;12.30;99.90
1570;DHT22;778;50.120;8.698;2023-05-14T03:17:31;12.30;99.90
1570;DHT22;778;50.120;8.698;2023-05-14T03:20:01;12.30;99.90
1570;DHT22;778;50.120;8.698;2023-05-14T03:22:29;12.30;99.90
1570;DHT22;778;50.120;8.698;2023-05-14T03:24:57;12.30;99.90
1570;DHT22;778;50.120;8.698;2023-05-14T03:27:26;12.30;99.90
1570;DHT22;778;50.120;8.698;2023-05-14T03:29:55;12.30;99.90
1570;DHT22;778;50.120;8.698;2023-05-14T03:32:24;12.30;99.90
1570;DHT22;778;50.120;8.698;2023-05-14T03:34:52;12.30;99.90
1570;DHT22;778;50.120;8.698;2023-05-14T03:37:23;12.30;99.90
1570;DHT22;778;50.120;8.698;2023-05-14T03:39:51;12.30;99.90
1570;DHT22;778;50.120;8.698;2023-05-14T03:42:19;12.40;99.90
1570;DHT22;778;50.120;8.698;2023-05-14T03:44:48;12.30;99.90
1570;DHT22;778;50.120;8.698;2023-05-14T03:47:16;12.30;99.90
1570;DHT22;778;50.120;8.698;2023-05-14T03:49:45;12.40;99.90
1570;DHT22;778;50.120;8.698;2023-05-14T03:52:14;12.20;99.90
1570;DHT22;778;50.120;8.698;2023-05-14T03:54:45;12.20;99.90
1570;DHT22;778;50.120;8.698;2023-05-14T03:57:14;12.20;99.90
1570;DHT22;778;50.120;8.698;2023-05-14T03:59:42;12.30;99.90
1570;DHT22;778;50.120;8.698;2023-05-14T04:02:12;12.30;99.90
1570;DHT22;778;50.120;8.698;2023-05-14T04:04:40;12.20;99.90
1570;DHT22;778;50.120;8.698;2023-05-14T04:07:09;12.20;99.90
1570;DHT22;778;50.120;8.698;2023-05-14T04:09:37;12.10;99.90
1570;DHT22;778;50.120;8.698;2023-05-14T04:12:08;12.10;99.90
1570;DHT22;778;50.120;8.698;2023-05-14T04:14:36;12.10;99.90
1570;DHT22;778;50.120;8.698;2023-05-14T04:17:05;12.10;99.90
1570;DHT22;778;50.120;8.698;2023-05-14T04:19:33;12.10;99.90
1570;DHT22;778;50.120;8.698;2023-05-14T04:22:02;12.10;99.90
1570;DHT22;778;50.120;8.698;2023-05-14T04:24:31;12.10;99.90
1570;DHT22;778;50.120;8.698;2023-05-14T04:26:59;12.10;99.90
1570;DHT22;778;50.120;8.698;2023-05-14T04:29:29;12.10;99.90
1570;DHT22;778;50.120;8.698;2023-05-14T04:31:58;12.10;99.90
1570;DHT22;778;50.120;8.698;2023-05-14T04:34:26;12.10;99.90
1570;DHT22;778;50.120;8.698;2023-05-14T04:36:55;12.10;99.90
1570;DHT22;778;50.120;8.698;2023-05-14T04:39:24;12.10;99.90
1570;DHT22;778;50.120;8.698;2023-05-14T04:41:52;12.10;99.90
1570;DHT22;778;50.120;8.698;2023-05-14T04:44:21;12.10;99.90
1570;DHT22;778;50.120;8.698;2023-05-14T04:46:51;12.10;99.90
1570;DHT22;778;50.120;8.698;2023-05-14T04:49:19;12.20;99.90
1570;DHT22;778;50.120;8.698;2023-05-14T04:51:47;12.20;99.90
1570;DHT22;778;50.120;8.698;2023-05-14T04:54:16;12.20;99.90
1570;DHT22;778;50.120;8.698;2023-05-14T04:56:44;12.30;99.90
1570;DHT22;778;50.120;8.698;2023-05-14T04:59:13;12.20;99.90
1570;DHT22;778;50.120;8.698;2023-05-14T05:01:42;12.30;99.90
1570;DHT22;778;50.120;8.698;2023-05-14T05:04:12;12.30;99.90
1570;DHT22;778;50.120;8.698;2023-05-14T05:06:41;12.30;99.90
1570;DHT22;778;50.120;8.698;2023-05-14T05:09:09;12.30;99.90
1570;DHT22;778;50.120;8.698;2023-05-14T05:11:38;12.40;99.90
1570;DHT22;778;50.120;8.698;2023-05-14T05:14:06;12.40;99.90
1570;DHT22;778;50.120;8.698;2023-05-14T05:16:35;12.30;99.90
1570;DHT22;778;50.120;8.698;2023-05-14T05:19:03;12.40;99.90
1570;DHT22;778;50.120;8.698;2023-05-14T05:21:34;12.40;99.90
1570;DHT22;778;50.120;8.698;2023-05-14T05:24:05;12.40;99.90
1570;DHT22;778;50.120;8.698;2023-05-14T05:26:34;12.40;99.90
1570;DHT22;778;50.120;8.698;2023-05-14T05:29:03;12.70;99.90
1570;DHT22;778;50.120;8.698;2023-05-14T05:31:32;12.80;99.90
1570;DHT22;778;50.120;8.698;2023-05-14T05:34:01;13.00;99.90
1570;DHT22;778;50.120;8.698;2023-05-14T05:36:30;13.00;99.90
1570;DHT22;778;50.120;8.698;2023-05-14T05:38:59;13.10;99.90
1570;DHT22;778;50.120;8.698;2023-05-14T05:41:28;13.10;99.90
1570;DHT22;778;50.120;8.698;2023-05-14T05:43:57;13.20;99.90
1570;DHT22;778;50.120;8.698;2023-05-14T05:46:25;13.30;99.90
1570;DHT22;778;50.120;8.698;2023-05-14T05:48:53;13.40;99.90
1570;DHT22;778;50.120;8.698;2023-05-14T05:51:22;13.70;99.90
1570;DHT22;778;50.120;8.698;2023-05-14T05:53:50;14.00;99.90
1570;DHT22;778;50.120;8.698;2023-05-14T05:56:20;14.60;99.90
1570;DHT22;778;50.120;8.698;2023-05-14T05:58:48;15.00;99.90
1570;DHT22;778;50.120;8.698;2023-05-14T06:01:17;15.30;99.90
1570;DHT22;778;50.120;8.698;2023-05-14T06:03:45;15.80;99.90
1570;DHT22;778;50.120;8.698;2023-05-14T06:06:14;16.30;99.90
1570;DHT22;778;50.120;8.698;2023-05-14T06:08:43;16.50;99.90
1570;DHT22;778;50.120;8.698;2023-05-14T06:11:11;16.40;99.90
1570;DHT22;778;50.120;8.698;2023-05-14T06:13:41;16.00;99.90
1570;DHT22;778;50.120;8.698;2023-05-14T06:16:09;15.80;99.90
1570;DHT22;778;50.120;8.698;2023-05-14T06:18:38;15.60;99.90
1570;DHT22;778;50.120;8.698;2023-05-14T06:21:06;15.30;99.90
1570;DHT22;778;50.120;8.698;2023-05-14T06:23:34;15.10;99.90
1570;DHT22;778;50.120;8.698;2023-05-14T06:26:03;15.00;99.90
1570;DHT22;778;50.120;8.698;2023-05-14T06:28:31;14.90;99.90
1570;DHT22;778;50.120;8.698;2023-05-14T06:31:01;14.90;99.90
1570;DHT22;778;50.120;8.698;2023-05-14T06:33:29;14.90;99.90
1570;DHT22;778;50.120;8.698;2023-05-14T06:35:59;15.20;99.90
1570;DHT22;778;50.120;8.698;2023-05-14T06:38:29;15.30;99.90
1570;DHT22;778;50.120;8.698;2023-05-14T06:40:59;15.70;99.90
1570;DHT22;778;50.120;8.698;2023-05-14T06:43:27;16.20;99.90
1570;DHT22;778;50.120;8.698;2023-05-14T06:45:55;16.90;99.90
1570;DHT22;778;50.120;8.698;2023-05-14T06:48:25;17.00;99.90
1570;DHT22;778;50.120;8.698;2023-05-14T06:50:55;17.30;99.90
1570;DHT22;778;50.120;8.698;2023-05-14T06:53:23;17.80;99.90
1570;DHT22;778;50.120;8.698;2023-05-14T06:55:52;18.20;99.90
1570;DHT22;778;50.120;8.698;2023-05-14T06:58:20;18.70;99.90
1570;DHT22;778;50.120;8.698;2023-05-14T07:00:49;19.20;99.90
1570;DHT22;778;50.120;8.698;2023-05-14T07:03:17;19.00;99.90
1570;DHT22;778;50.120;8.698;2023-05-14T07:05:47;19.30;99.90
1570;DHT22;778;50.120;8.698;2023-05-14T07:08:15;19.30;99.90
1570;DHT22;778;50.120;8.698;2023-05-14T07:10:43;19.00;99.90
1570;DHT22;778;50.120;8.698;2023-05-14T07:13:12;18.90;99.90
1570;DHT22;778;50.120;8.698;2023-05-14T07:15:40;18.80;99.90
1570;DHT22;778;50.120;8.698;2023-05-14T07:18:09;19.10;99.90
1570;DHT22;778;50.120;8.698;2023-05-14T07:20:37;18.80;99.90
1570;DHT22;778;50.120;8.698;2023-05-14T07:23:07;18.70;99.90
1570;DHT22;778;50.120;8.698;2023-05-14T07:25:35;19.00;99.90
1570;DHT22;778;50.120;8.698;2023-05-14T07:28:04;19.30;99.90
1570;DHT22;778;50.120;8.698;2023-05-14T07:30:33;19.40;99.90
1570;DHT22;778;50.120;8.698;2023-05-14T07:33:01;19.30;99.90
1570;DHT22;778;50.120;8.698;2023-05-14T07:35:30;19.20;99.90
1570;DHT22;778;50.120;8.698;2023-05-14T07:37:59;19.30;99.90
1570;DHT22;778;50.120;8.698;2023-05-14T07:40:28;19.70;99.90
1570;DHT22;778;50.120;8.698;2023-05-14T07:42:57;19.70;99.90
1570;DHT22;778;50.120;8.698;2023-05-14T07:45:25;19.70;99.90
1570;DHT22;778;50.120;8.698;2023-05-14T07:47:53;19.80;99.90
1570;DHT22;778;50.120;8.698;2023-05-14T07:50:22;19.70;99.90
1570;DHT22;778;50.120;8.698;2023-05-14T07:52:51;19.60;99.90
1570;DHT22;778;50.120;8.698;2023-05-14T07:55:20;19.60;99.90
1570;DHT22;778;50.120;8.698;2023-05-14T07:57:50;19.60;99.90
1570;DHT22;778;50.120;8.698;2023-05-14T08:00:19;20.00;99.90
1570;DHT22;778;50.120;8.698;2023-05-14T08:02:48;20.20;99.90
1570;DHT22;778;50.120;8.698;2023-05-14T08:05:17;20.60;99.90
1570;DHT22;778;50.120;8.698;2023-05-14T08:07:46;21.00;99.90
1570;DHT22;778;50.120;8.698;2023-05-14T08:10:14;21.10;99.90
1570;DHT22;778;50.120;8.698;2023-05-14T08:12:43;21.30;99.90
1570;DHT22;778;50.120;8.698;2023-05-14T08:15:12;21.10;99.90
1570;DHT22;778;50.120;8.698;2023-05-14T08:17:41;21.20;99.90
1570;DHT22;778;50.120;8.698;2023-05-14T08:20:10;20.90;99.90
1570;DHT22;778;50.120;8.698;2023-05-14T08:22:38;21.20;99.90
1570;DHT22;778;50.120;8.698;2023-05-14T08:25:07;21.10;99.90
1570;DHT22;778;50.120;8.698;2023-05-14T08:27:36;20.60;99.30
1570;DHT22;778;50.120;8.698;2023-05-14T08:30:05;20.70;99.90
1570;DHT22;778;50.120;8.698;2023-05-14T08:32:36;21.10;99.90
1570;DHT22;778;50.120;8.698;2023-05-14T08:35:06;20.90;97.40
1570;DHT22;778;50.120;8.698;2023-05-14T08:37:35;20.70;98.10
1570;DHT22;778;50.120;8.698;2023-05-14T08:40:04;20.80;95.90
1570;DHT22;778;50.120;8.698;2023-05-14T08:42:37;21.10;94.40
1570;DHT22;778;50.120;8.698;2023-05-14T08:45:12;20.00;95.30
1570;DHT22;778;50.120;8.698;2023-05-14T08:47:46;19.40;97.40
1570;DHT22;778;50.120;8.698;2023-05-14T08:50:17;19.20;98.30
1570;DHT22;778;50.120;8.698;2023-05-14T08:52:49;19.60;98.50
1570;DHT22;778;50.120;8.698;2023-05-14T08:55:19;20.00;97.30
1570;DHT22;778;50.120;8.698;2023-05-14T08:57:48;20.10;99.40
1570;DHT22;778;50.120;8.698;2023-05-14T09:00:17;20.30;99.90
1570;DHT22;778;50.120;8.698;2023-05-14T09:02:47;19.70;99.50
1570;DHT22;778;50.120;8.698;2023-05-14T09:05:18;19.30;99.90
1570;DHT22;778;50.120;8.698;2023-05-14T09:07:47;19.10;99.90
1570;DHT22;778;50.120;8.698;2023-05-14T09:10:16;18.90;99.90
1570;DHT22;778;50.120;8.698;2023-05-14T09:12:45;18.70;99.90
1570;DHT22;778;50.120;8.698;2023-05-14T09:15:13;18.80;99.90
1570;DHT22;778;50.120;8.698;2023-05-14T09:17:42;18.50;99.90
1570;DHT22;778;50.120;8.698;2023-05-14T09:20:13;18.20;99.90
1570;DHT22;778;50.120;8.698;2023-05-14T09:22:42;17.90;99.90
1570;DHT22;778;50.120;8.698;2023-05-14T09:25:11;17.90;99.90
1570;DHT22;778;50.120;8.698;2023-05-14T09:27:39;18.00;99.90
1570;DHT22;778;50.120;8.698;2023-05-14T09:30:09;18.00;99.90
1570;DHT22;778;50.120;8.698;2023-05-14T09:32:39;18.00;99.90
1570;DHT22;778;50.120;8.698;2023-05-14T09:35:16;18.00;99.90
1570;DHT22;778;50.120;8.698;2023-05-14T09:37:47;18.10;99.90
1570;DHT22;778;50.120;8.698;2023-05-14T09:40:17;18.00;99.90
1570;DHT22;778;50.120;8.698;2023-05-14T09:42:47;17.90;99.90
1570;DHT22;778;50.120;8.698;2023-05-14T09:45:16;17.90;99.90
1570;DHT22;778;50.120;8.698;2023-05-14T09:47:44;18.00;99.90
1570;DHT22;778;50.120;8.698;2023-05-14T09:50:14;17.90;99.90
1570;DHT22;778;50.120;8.698;2023-05-14T09:52:43;18.00;99.90
1570;DHT22;778;50.120;8.698;2023-05-14T09:55:11;18.00;99.90
1570;DHT22;778;50.120;8.698;2023-05-14T09:57:40;17.90;99.90
1570;DHT22;778;50.120;8.698;2023-05-14T10:00:10;17.70;99.90
1570;DHT22;778;50.120;8.698;2023-05-14T10:02:40;17.90;99.90
1570;DHT22;778;50.120;8.698;2023-05-14T10:05:11;18.10;99.90
1570;DHT22;778;50.120;8.698;2023-05-14T10:07:46;18.30;99.90
1570;DHT22;778;50.120;8.698;2023-05-14T10:10:18;18.40;99.90
1570;DHT22;778;50.120;8.698;2023-05-14T10:12:51;18.30;99.90
1570;DHT22;778;50.120;8.698;2023-05-14T10:15:29;18.40;99.60
1570;DHT22;778;50.120;8.698;2023-05-14T10:18:05;18.30;98.80
1570;DHT22;778;50.120;8.698;2023-05-14T10:20:36;18.30;99.90
1570;DHT22;778;50.120;8.698;2023-05-14T10:23:06;18.20;99.90
1570;DHT22;778;50.120;8.698;2023-05-14T10:25:35;18.30;99.90
1570;DHT22;778;50.120;8.698;2023-05-14T10:28:04;18.30;98.70
1570;DHT22;778;50.120;8.698;2023-05-14T10:30:33;18.40;99.00
1570;DHT22;778;50.120;8.698;2023-05-14T10:33:06;18.60;99.20
1570;DHT22;778;50.120;8.698;2023-05-14T10:35:59;18.80;98.60
1570;DHT22;778;50.120;8.698;2023-05-14T10:38:31;19.20;98.90
1570;DHT22;778;50.120;8.698;2023-05-14T10:41:03;19.30;97.10
1570;DHT22;778;50.120;8.698;2023-05-14T10:43:36;19.30;97.00
1570;DHT22;778;50.120;8.698;2023-05-14T10:46:06;19.20;97.60
1570;DHT22;778;50.120;8.698;2023-05-14T10:48:36;19.00;97.60
1570;DHT22;778;50.120;8.698;2023-05-14T10:51:06;19.20;98.50
1570;DHT22;778;50.120;8.698;2023-05-14T10:53:38;19.30;98.20
1570;DHT22;778;50.120;8.698;2023-05-14T10:56:09;19.90;98.00
1570;DHT22;778;50.120;8.698;2023-05-14T10:58:40;20.30;96.00
1570;DHT22;778;50.120;8.698;2023-05-14T11:01:11;20.30;96.60
1570;DHT22;778;50.120;8.698;2023-05-14T11:03:41;20.30;94.80
1570;DHT22;778;50.120;8.698;2023-05-14T11:06:12;20.50;94.60
1570;DHT22;778;50.120;8.698;2023-05-14T11:08:44;20.60;94.80
1570;DHT22;778;50.120;8.698;2023-05-14T11:11:13;20.80;94.70
1570;DHT22;778;50.120;8.698;2023-05-14T11:13:41;20.90;95.50
1570;DHT22;778;50.120;8.698;2023-05-14T11:16:10;20.90;97.60
1570;DHT22;778;50.120;8.698;2023-05-14T11:18:52;20.70;94.90
1570;DHT22;778;50.120;8.698;2023-05-14T11:21:28;20.40;94.60
1570;DHT22;778;50.120;8.698;2023-05-14T11:24:00;19.90;97.00
1570;DHT22;778;50.120;8.698;2023-05-14T11:26:31;19.80;97.40
1570;DHT22;778;50.120;8.698;2023-05-14T11:28:59;19.70;98.00
1570;DHT22;778;50.120;8.698;2023-05-14T11:31:28;19.70;98.80
1570;DHT22;778;50.120;8.698;2023-05-14T11:33:56;19.60;98.90
1570;DHT22;778;50.120;8.698;2023-05-14T11:36:26;19.60;98.60
1570;DHT22;778;50.120;8.698;2023-05-14T11:38:54;19.70;98.50
1570;DHT22;778;50.120;8.698;2023-05-14T11:41:24;19.80;97.80
1570;DHT22;778;50.120;8.698;2023-05-14T11:43:54;19.90;97.80
1570;DHT22;778;50.120;8.698;2023-05-14T11:46:22;19.90;98.30
1570;DHT22;778;50.120;8.698;2023-05-14T11:48:52;19.80;96.90
1570;DHT22;778;50.120;8.698;2023-05-14T11:51:20;20.10;97.80
1570;DHT22;778;50.120;8.698;2023-05-14T11:53:50;20.20;96.40
1570;DHT22;778;50.120;8.698;2023-05-14T11:56:20;20.00;95.80
1570;DHT22;778;50.120;8.698;2023-05-14T11:58:55;19.90;95.80
1570;DHT22;778;50.120;8.698;2023-05-14T12:01:24;19.70;96.60
1570;DHT22;778;50.120;8.698;2023-05-14T12:03:54;19.60;97.40
1570;DHT22;778;50.120;8.698;2023-05-14T12:06:29;19.40;97.20
1570;DHT22;778;50.120;8.698;2023-05-14T12:08:58;19.40;97.20
1570;DHT22;778;50.120;8.698;2023-05-14T12:11:29;19.50;97.30
1570;DHT22;778;50.120;8.698;2023-05-14T12:14:00;19.60;95.20
1570;DHT22;778;50.120;8.698;2023-05-14T12:16:29;19.80;94.70
1570;DHT22;778;50.120;8.698;2023-05-14T12:19:00;20.00;93.80
1570;DHT22;778;50.120;8.698;2023-05-14T12:21:29;19.80;93.70
1570;DHT22;778;50.120;8.698;2023-05-14T12:23:58;19.90;94.20
1570;DHT22;778;50.120;8.698;2023-05-14T12:26:26;19.70;93.70
1570;DHT22;778;50.120;8.698;2023-05-14T12:28:57;19.80;95.00
1570;DHT22;778;50.120;8.698;2023-05-14T12:31:29;20.20;95.70
1570;DHT22;778;50.120;8.698;2023-05-14T12:33:57;20.20;92.90
1570;DHT22;778;50.120;8.698;2023-05-14T12:36:26;20.00;92.40
1570;DHT22;778;50.120;8.698;2023-05-14T12:38:57;20.10;93.70
1570;DHT22;778;50.120;8.698;2023-05-14T12:41:29;20.30;92.80
1570;DHT22;778;50.120;8.698;2023-05-14T12:43:59;20.10;93.10
1570;DHT22;778;50.120;8.698;2023-05-14T12:46:29;20.10;92.60
1570;DHT22;778;50.120;8.698;2023-05-14T12:48:58;20.20;92.50
1570;DHT22;778;50.120;8.698;2023-05-14T12:51:26;19.90;91.90
1570;DHT22;778;50.120;8.698;2023-05-14T12:53:55;19.90;92.80
1570;DHT22;778;50.120;8.698;2023-05-14T12:56:24;20.10;92.00
1570;DHT22;778;50.120;8.698;2023-05-14T12:58:54;20.10;91.50
1570;DHT22;778;50.120;8.698;2023-05-14T13:01:24;19.80;91.50
1570;DHT22;778;50.120;8.698;2023-05-14T13:03:52;19.90;92.90
1570;DHT22;778;50.120;8.698;2023-05-14T13:06:21;20.10;92.80
1570;DHT22;778;50.120;8.698;2023-05-14T13:08:50;19.70;91.50
1570;DHT22;778;50.120;8.698;2023-05-14T13:11:18;19.70;91.40
1570;DHT22;778;50.120;8.698;2023-05-14T13:13:47;19.80;90.60
1570;DHT22;778;50.120;8.698;2023-05-14T13:16:18;19.80;91.70
1570;DHT22;778;50.120;8.698;2023-05-14T13:18:49;19.80;90.30
1570;DHT22;778;50.120;8.698;2023-05-14T13:21:19;19.70;90.00
1570;DHT22;778;50.120;8.698;2023-05-14T13:23:48;19.60;90.30
1570;DHT22;778;50.120;8.698;2023-05-14T13:26:16;19.50;90.50
1570;DHT22;778;50.120;8.698;2023-05-14T13:28:45;19.40;90.90
1570;DHT22;778;50.120;8.698;2023-05-14T13:31:13;19.50;90.30
1570;DHT22;778;50.120;8.698;2023-05-14T13:33:43;19.60;89.80
1570;DHT22;778;50.120;8.698;2023-05-14T13:36:13;19.60;90.40
1570;DHT22;778;50.120;8.698;2023-05-14T13:38:42;19.70;90.30
1570;DHT22;778;50.120;8.698;2023-05-14T13:41:11;19.80;91.20
1570;DHT22;778;50.120;8.698;2023-05-14T13:43:40;20.00;90.60
1570;DHT22;778;50.120;8.698;2023-05-14T13:46:08;20.00;91.30
1570;DHT22;778;50.120;8.698;2023-05-14T13:48:36;20.20;91.20
1570;DHT22;778;50.120;8.698;2023-05-14T13:51:05;20.20;91.10
1570;DHT22;778;50.120;8.698;2023-05-14T13:53:35;20.20;90.10
1570;DHT22;778;50.120;8.698;2023-05-14T13:56:03;20.10;86.40
1570;DHT22;778;50.120;8.698;2023-05-14T13:58:34;20.00;86.30
1570;DHT22;778;50.120;8.698;2023-05-14T14:01:02;20.00;85.60
1570;DHT22;778;50.120;8.698;2023-05-14T14:03:31;20.10;90.10
1570;DHT22;778;50.120;8.698;2023-05-14T14:05:59;20.30;85.80
1570;DHT22;778;50.120;8.698;2023-05-14T14:08:28;20.50;84.70
1570;DHT22;778;50.120;8.698;2023-05-14T14:10:58;20.40;82.70
1570;DHT22;778;50.120;8.698;2023-05-14T14:13:26;20.40;82.90
1570;DHT22;778;50.120;8.698;2023-05-14T14:15:55;20.40;82.80
1570;DHT22;778;50.120;8.698;2023-05-14T14:18:23;20.30;83.70
1570;DHT22;778;50.120;8.698;2023-05-14T14:20:52;20.20;82.40
1570;DHT22;778;50.120;8.698;2023-05-14T14:23:20;20.20;82.10
1570;DHT22;778;50.120;8.698;2023-05-14T14:25:49;20.20;81.80
1570;DHT22;778;50.120;8.698;2023-05-14T14:28:18;20.10;83.30
1570;DHT22;778;50.120;8.698;2023-05-14T14:30:47;20.20;82.30
1570;DHT22;778;50.120;8.698;2023-05-14T14:33:15;20.20;82.10
1570;DHT22;778;50.120;8.698;2023-05-14T14:35:44;20.10;81.20
1570;DHT22;778;50.120;8.698;2023-05-14T14:38:12;20.30;81.00
1570;DHT22;778;50.120;8.698;2023-05-14T14:40:41;20.40;82.10
1570;DHT22;778;50.120;8.698;2023-05-14T14:43:09;20.60;77.30
1570;DHT22;778;50.120;8.698;2023-05-14T14:45:39;20.60;76.90
1570;DHT22;778;50.120;8.698;2023-05-14T14:48:27;20.50;77.20
1570;DHT22;778;50.120;8.698;2023-05-14T14:50:59;20.40;75.90
1570;DHT22;778;50.120;8.698;2023-05-14T14:53:28;20.30;76.20
1570;DHT22;778;50.120;8.698;2023-05-14T14:55:58;20.40;77.30
1570;DHT22;778;50.120;8.698;2023-05-14T14:58:27;20.30;77.40
1570;DHT22;778;50.120;8.698;2023-05-14T15:00:58;20.40;77.70
1570;DHT22;778;50.120;8.698;2023-05-14T15:03:28;20.30;78.60
1570;DHT22;778;50.120;8.698;2023-05-14T15:05:57;20.40;79.20
1570;DHT22;778;50.120;8.698;2023-05-14T15:08:26;20.30;77.80
1570;DHT22;778;50.120;8.698;2023-05-14T15:10:55;20.50;78.30
1570;DHT22;778;50.120;8.698;2023-05-14T15:13:25;20.50;78.60
1570;DHT22;778;50.120;8.698;2023-05-14T15:15:54;20.60;79.40
1570;DHT22;778;50.120;8.698;2023-05-14T15:18:24;20.40;79.30
1570;DHT22;778;50.120;8.698;2023-05-14T15:20:52;20.50;80.20
1570;DHT22;778;50.120;8.698;2023-05-14T15:23:21;20.50;80.60
1570;DHT22;778;50.120;8.698;2023-05-14T15:25:50;20.70;82.60
1570;DHT22;778;50.120;8.698;2023-05-14T15:28:18;20.70;83.20
1570;DHT22;778;50.120;8.698;2023-05-14T15:30:47;20.60;84.40
1570;DHT22;778;50.120;8.698;2023-05-14T15:33:15;20.80;85.90
1570;DHT22;778;50.120;8.698;2023-05-14T15:35:46;21.00;84.60
1570;DHT22;778;50.120;8.698;2023-05-14T15:38:15;20.90;83.40
1570;DHT22;778;50.120;8.698;2023-05-14T15:40:43;21.00;86.40
1570;DHT22;778;50.120;8.698;2023-05-14T15:43:11;20.30;89.20
1570;DHT22;778;50.120;8.698;2023-05-14T15:45:41;20.10;91.10
1570;DHT22;778;50.120;8.698;2023-05-14T15:48:10;19.80;92.30
1570;DHT22;778;50.120;8.698;2023-05-14T15:50:39;19.70;93.50
1570;DHT22;778;50.120;8.698;2023-05-14T15:53:09;19.60;94.10
1570;DHT22;778;50.120;8.698;2023-05-14T15:55:37;18.90;97.80
1570;DHT22;778;50.120;8.698;2023-05-14T15:58:05;18.70;99.90
1570;DHT22;778;50.120;8.698;2023-05-14T16:00:34;18.60;99.90
1570;DHT22;778;50.120;8.698;2023-05-14T16:03:02;18.40;99.90
1570;DHT22;778;50.120;8.698;2023-05-14T16:05:31;18.40;99.90
1570;DHT22;778;50.120;8.698;2023-05-14T16:08:00;18.20;99.90
1570;DHT22;778;50.120;8.698;2023-05-14T16:10:30;18.20;99.90
1570;DHT22;778;50.120;8.698;2023-05-14T16:12:59;18.40;99.90
1570;DHT22;778;50.120;8.698;2023-05-14T16:15:27;18.60;99.90
1570;DHT22;778;50.120;8.698;2023-05-14T16:17:56;18.60;99.90
1570;DHT22;778;50.120;8.698;2023-05-14T16:20:24;18.70;99.90
1570;DHT22;778;50.120;8.698;2023-05-14T16:22:52;18.80;99.90
1570;DHT22;778;50.120;8.698;2023-05-14T16:25:21;18.90;99.90
1570;DHT22;778;50.120;8.698;2023-05-14T16:27:50;18.80;99.90
1570;DHT22;778;50.120;8.698;2023-05-14T16:30:19;19.00;99.90
1570;DHT22;778;50.120;8.698;2023-05-14T16:32:47;19.30;99.90